createdAt,value
2018-08-09T00:01:28.291Z,20.70
2018-08-09T00:03:57.053Z,20.70
2018-08-09T00:06:25.413Z,20.70
2018-08-09T00:08:53.816Z,20.60
2018-08-09T00:11:22.144Z,20.70
2018-08-09T00:13:50.457Z,20.70
2018-08-09T00:16:18.824Z,20.70
2018-08-09T00:18:47.144Z,20.70
2018-08-09T00:21:15.515Z,20.80
2018-08-09T00:23:44.067Z,20.70
2018-08-09T00:26:12.452Z,20.80
2018-08-09T00:28:40.890Z,20.80
2018-08-09T00:31:09.444Z,20.80
2018-08-09T00:33:37.860Z,20.80
2018-08-09T00:36:06.241Z,20.80
2018-08-09T00:38:34.673Z,20.90
2018-08-09T00:41:03.099Z,20.90
2018-08-09T00:43:31.479Z,20.90
2018-08-09T00:45:59.921Z,20.80
2018-08-09T00:48:28.339Z,20.80
2018-08-09T00:50:56.780Z,20.80
2018-08-09T00:53:25.131Z,20.80
2018-08-09T00:55:53.472Z,20.80
2018-08-09T00:58:21.813Z,20.90
2018-08-09T01:00:50.216Z,20.90
2018-08-09T01:03:18.561Z,21.00
2018-08-09T01:05:46.937Z,20.90
2018-08-09T01:08:15.292Z,20.80
2018-08-09T01:10:43.706Z,20.80
2018-08-09T01:13:12.065Z,20.60
2018-08-09T01:15:40.529Z,21.00
2018-08-09T01:18:09.581Z,21.00
2018-08-09T01:20:37.949Z,20.80
2018-08-09T01:23:06.383Z,20.70
2018-08-09T01:25:34.804Z,20.70
2018-08-09T01:28:03.251Z,20.60
2018-08-09T01:30:31.595Z,20.80
2018-08-09T01:33:00.033Z,21.20
2018-08-09T01:35:28.359Z,21.00
2018-08-09T01:37:56.712Z,21.10
2018-08-09T01:40:25.009Z,20.70
2018-08-09T01:43:04.645Z,20.50
2018-08-09T01:45:33.080Z,20.30
2018-08-09T01:48:01.490Z,20.30
2018-08-09T01:50:29.813Z,20.50
2018-08-09T01:52:58.120Z,20.40
2018-08-09T01:55:26.450Z,20.40
2018-08-09T01:57:54.840Z,20.50
2018-08-09T02:00:23.181Z,20.50
2018-08-09T02:02:51.484Z,20.70
2018-08-09T02:05:19.829Z,20.60
2018-08-09T02:07:48.127Z,20.70
2018-08-09T02:10:16.392Z,20.70
2018-08-09T02:12:44.733Z,20.60
2018-08-09T02:15:13.109Z,21.00
2018-08-09T02:17:41.452Z,21.10
2018-08-09T02:20:09.844Z,21.10
2018-08-09T02:22:38.298Z,20.60
2018-08-09T02:25:06.612Z,20.70
2018-08-09T02:27:35.070Z,20.60
2018-08-09T02:30:03.465Z,20.50
2018-08-09T02:32:31.849Z,20.50
2018-08-09T02:35:00.223Z,20.70
2018-08-09T02:37:28.583Z,20.90
2018-08-09T02:39:57.036Z,20.70
2018-08-09T02:42:25.364Z,21.00
2018-08-09T02:44:53.812Z,20.80
2018-08-09T02:47:22.136Z,21.00
2018-08-09T02:49:50.640Z,20.60
2018-08-09T02:52:19.016Z,20.70
2018-08-09T02:54:47.362Z,20.70
2018-08-09T02:57:15.721Z,20.80
2018-08-09T02:59:44.051Z,20.70
2018-08-09T03:02:12.416Z,20.50
2018-08-09T03:04:40.758Z,20.70
2018-08-09T03:07:09.203Z,21.00
2018-08-09T03:09:37.567Z,20.40
2018-08-09T03:12:05.919Z,20.50
2018-08-09T03:14:34.343Z,20.30
2018-08-09T03:17:02.702Z,20.30
2018-08-09T03:19:31.050Z,20.50
2018-08-09T03:21:59.748Z,20.70
2018-08-09T03:24:28.233Z,20.90
2018-08-09T03:26:56.552Z,20.60
2018-08-09T03:29:24.934Z,20.50
2018-08-09T03:31:53.353Z,20.40
2018-08-09T03:34:21.676Z,20.70
2018-08-09T03:36:50.091Z,20.70
2018-08-09T03:39:18.505Z,20.80
2018-08-09T03:41:47.075Z,21.00
2018-08-09T03:44:15.426Z,21.00
2018-08-09T03:46:43.813Z,21.00
2018-08-09T03:49:12.160Z,21.00
2018-08-09T03:51:40.474Z,21.20
2018-08-09T03:54:08.778Z,21.10
2018-08-09T03:56:37.112Z,21.10
2018-08-09T03:59:05.498Z,21.20
2018-08-09T04:01:33.889Z,21.00
2018-08-09T04:04:05.584Z,21.10
2018-08-09T04:06:34.421Z,21.20
2018-08-09T04:09:03.013Z,21.20
2018-08-09T04:11:31.891Z,21.20
2018-08-09T04:14:00.866Z,21.30
2018-08-09T04:16:29.469Z,21.40
2018-08-09T04:18:58.236Z,21.50
2018-08-09T04:21:27.009Z,21.50
2018-08-09T04:23:55.693Z,21.50
2018-08-09T04:26:24.344Z,21.70
2018-08-09T04:28:52.780Z,22.20
2018-08-09T04:31:21.225Z,22.40
2018-08-09T04:33:49.841Z,22.40
2018-08-09T04:36:18.703Z,21.90
2018-08-09T04:38:47.530Z,21.70
2018-08-09T04:41:16.168Z,21.60
2018-08-09T04:43:45.021Z,21.40
2018-08-09T04:46:13.975Z,21.50
2018-08-09T04:48:42.594Z,21.50
2018-08-09T04:51:11.623Z,21.60
2018-08-09T04:53:40.285Z,21.50
2018-08-09T04:56:09.217Z,21.50
2018-08-09T04:58:37.842Z,21.60
2018-08-09T05:01:06.474Z,21.70
2018-08-09T05:03:35.005Z,21.90
2018-08-09T05:06:03.640Z,22.00
2018-08-09T05:08:32.125Z,22.00
2018-08-09T05:11:00.698Z,22.00
2018-08-09T05:13:29.570Z,21.90
2018-08-09T05:15:58.291Z,22.00
2018-08-09T05:18:27.062Z,22.10
2018-08-09T05:20:55.998Z,22.30
2018-08-09T05:23:25.243Z,22.30
2018-08-09T05:25:54.472Z,22.30
2018-08-09T05:28:23.441Z,22.20
2018-08-09T05:30:53.671Z,22.40
2018-08-09T05:33:24.329Z,22.50
2018-08-09T05:35:54.506Z,22.50
2018-08-09T05:38:25.791Z,22.20
2018-08-09T05:40:56.739Z,22.40
2018-08-09T05:43:25.642Z,22.30
2018-08-09T05:45:54.257Z,22.20
2018-08-09T05:48:22.801Z,22.50
2018-08-09T05:50:51.419Z,22.50
2018-08-09T05:53:19.979Z,22.40
2018-08-09T05:55:48.555Z,22.50
2018-08-09T05:58:17.291Z,22.50
2018-08-09T06:00:46.137Z,22.60
2018-08-09T06:03:14.932Z,22.60
2018-08-09T06:05:43.880Z,22.60
2018-08-09T06:08:12.519Z,22.60
2018-08-09T06:10:41.178Z,22.70
2018-08-09T06:13:09.825Z,22.90
2018-08-09T06:15:38.541Z,23.00
2018-08-09T06:18:07.526Z,23.00
2018-08-09T06:20:36.030Z,23.20
2018-08-09T06:23:04.935Z,23.30
2018-08-09T06:25:33.690Z,23.30
2018-08-09T06:28:02.454Z,23.30
2018-08-09T06:30:31.299Z,23.30
2018-08-09T06:32:59.777Z,23.20
2018-08-09T06:35:28.216Z,23.20
2018-08-09T06:37:56.720Z,23.10
2018-08-09T06:40:25.162Z,23.10
2018-08-09T06:42:53.501Z,23.20
2018-08-09T06:45:22.005Z,23.10
2018-08-09T06:47:50.351Z,23.10
2018-08-09T06:50:19.041Z,23.30
2018-08-09T06:52:47.780Z,23.40
2018-08-09T06:58:02.672Z,23.80
2018-08-09T07:00:34.160Z,23.70
2018-08-09T07:03:02.831Z,23.60
2018-08-09T07:05:31.460Z,23.70
2018-08-09T07:08:00.304Z,23.90
2018-08-09T07:10:29.028Z,23.70
2018-08-09T07:12:57.725Z,23.90
2018-08-09T07:15:32.544Z,23.90
2018-08-09T07:18:01.272Z,23.90
2018-08-09T07:20:32.282Z,23.70
2018-08-09T07:23:04.867Z,23.80
2018-08-09T07:25:33.445Z,23.90
2018-08-09T07:28:02.243Z,23.90
2018-08-09T07:30:30.637Z,24.00
2018-08-09T07:32:59.110Z,24.00
2018-08-09T07:35:29.555Z,24.20
2018-08-09T07:37:59.164Z,24.10
2018-08-09T07:40:27.967Z,24.10
2018-08-09T07:42:58.418Z,24.30
2018-08-09T07:45:27.292Z,24.30
2018-08-09T07:47:58.936Z,24.60
2018-08-09T07:50:27.559Z,24.60
2018-08-09T07:52:56.962Z,24.50
2018-08-09T07:55:25.449Z,24.70
2018-08-09T07:57:56.984Z,24.70
2018-08-09T08:00:27.002Z,24.80
2018-08-09T08:02:56.050Z,25.00
2018-08-09T08:05:25.169Z,25.20
2018-08-09T08:07:53.810Z,25.20
2018-08-09T08:10:22.709Z,25.30
2018-08-09T08:12:52.100Z,25.20
2018-08-09T08:15:21.974Z,25.30
2018-08-09T08:17:51.403Z,25.40
2018-08-09T08:20:20.982Z,25.10
2018-08-09T08:22:50.419Z,25.20
2018-08-09T08:25:20.248Z,25.00
2018-08-09T08:27:48.699Z,25.30
2018-08-09T08:30:17.213Z,25.60
2018-08-09T08:32:45.593Z,26.20
2018-08-09T08:35:15.925Z,26.90
2018-08-09T08:37:45.269Z,26.70
2018-08-09T08:40:16.143Z,26.40
2018-08-09T08:42:44.940Z,26.30
2018-08-09T08:45:14.299Z,26.60
2018-08-09T08:47:43.092Z,26.90
2018-08-09T08:50:12.000Z,27.20
2018-08-09T08:52:40.347Z,27.40
2018-08-09T08:55:10.238Z,27.60
2018-08-09T08:57:38.584Z,27.50
2018-08-09T09:00:08.552Z,27.70
2018-08-09T09:02:37.098Z,27.90
2018-08-09T09:05:07.101Z,28.10
2018-08-09T09:07:35.736Z,28.20
2018-08-09T09:10:04.483Z,28.20
2018-08-09T09:12:32.769Z,28.30
2018-08-09T09:15:01.165Z,28.30
2018-08-09T09:17:29.578Z,28.60
2018-08-09T09:19:58.494Z,28.50
2018-08-09T09:22:27.027Z,28.90
2018-08-09T09:24:55.617Z,28.90
2018-08-09T09:27:24.025Z,28.70
2018-08-09T09:29:52.376Z,28.50
2018-08-09T09:32:20.709Z,28.30
2018-08-09T09:34:49.136Z,28.30
2018-08-09T09:37:17.513Z,28.40
2018-08-09T09:39:45.838Z,28.60
2018-08-09T09:42:14.506Z,28.70
2018-08-09T09:44:43.086Z,28.70
2018-08-09T09:47:11.464Z,28.80
2018-08-09T09:49:39.769Z,28.70
2018-08-09T09:52:08.083Z,28.80
2018-08-09T09:54:36.817Z,28.70
2018-08-09T09:57:05.200Z,28.70
2018-08-09T09:59:33.564Z,29.00
2018-08-09T10:02:02.106Z,29.10
2018-08-09T10:04:30.507Z,29.10
2018-08-09T10:06:59.000Z,29.10
2018-08-09T10:09:27.477Z,29.00
2018-08-09T10:11:55.863Z,28.80
2018-08-09T10:14:24.223Z,28.90
2018-08-09T10:16:52.536Z,29.10
2018-08-09T10:19:20.858Z,29.40
2018-08-09T10:21:49.221Z,29.50
2018-08-09T10:24:17.600Z,29.70
2018-08-09T10:26:45.981Z,29.60
2018-08-09T10:29:14.310Z,29.40
2018-08-09T10:31:42.711Z,29.70
2018-08-09T10:34:11.069Z,30.00
2018-08-09T10:36:40.513Z,29.90
2018-08-09T10:39:12.034Z,30.10
2018-08-09T10:41:40.443Z,30.20
2018-08-09T10:44:09.300Z,30.90
2018-08-09T10:46:37.700Z,31.00
2018-08-09T10:49:06.318Z,30.90
2018-08-09T10:51:35.204Z,30.50
2018-08-09T10:54:03.653Z,31.00
2018-08-09T10:56:32.048Z,31.20
2018-08-09T11:01:44.662Z,31.00
2018-08-09T11:04:19.054Z,30.90
2018-08-09T11:06:48.440Z,31.30
2018-08-09T11:09:21.061Z,31.40
2018-08-09T11:11:50.470Z,31.20
2018-08-09T11:14:19.576Z,31.00
2018-08-09T11:16:49.614Z,31.30
2018-08-09T11:19:19.444Z,31.10
2018-08-09T11:21:51.832Z,31.40
2018-08-09T11:24:20.969Z,31.40
2018-08-09T11:26:52.350Z,31.10
2018-08-09T11:29:22.349Z,30.70
2018-08-09T11:31:57.069Z,31.00
2018-08-09T11:34:34.377Z,31.50
2018-08-09T11:37:06.643Z,32.00
2018-08-09T11:39:35.400Z,32.00
2018-08-09T11:42:04.301Z,32.40
2018-08-09T11:44:32.809Z,32.60
2018-08-09T11:47:02.355Z,32.50
2018-08-09T11:49:31.829Z,32.40
2018-08-09T11:52:01.369Z,32.20
2018-08-09T11:54:32.449Z,32.40
2018-08-09T11:57:04.326Z,32.60
2018-08-09T11:59:32.836Z,32.40
2018-08-09T12:02:03.889Z,32.30
2018-08-09T12:04:33.065Z,32.30
2018-08-09T12:07:05.917Z,32.00
2018-08-09T12:09:37.305Z,32.10
2018-08-09T12:12:06.898Z,32.20
2018-08-09T12:14:36.043Z,32.10
2018-08-09T12:17:04.762Z,32.00
2018-08-09T12:19:36.740Z,31.80
2018-08-09T12:22:08.025Z,31.60
2018-08-09T12:24:36.920Z,31.30
2018-08-09T12:27:08.692Z,31.20
2018-08-09T12:29:38.309Z,31.20
2018-08-09T12:32:08.049Z,31.00
2018-08-09T12:34:38.103Z,30.90
2018-08-09T12:37:08.876Z,31.00
2018-08-09T12:39:41.190Z,31.20
2018-08-09T12:42:10.269Z,31.40
2018-08-09T12:44:43.495Z,30.90
2018-08-09T12:47:13.601Z,31.00
2018-08-09T12:49:45.599Z,31.00
2018-08-09T12:52:21.693Z,30.70
2018-08-09T12:54:51.362Z,30.40
2018-08-09T12:57:23.361Z,30.10
2018-08-09T12:59:55.015Z,30.00
2018-08-09T13:02:23.916Z,29.90
2018-08-09T13:04:54.481Z,29.80
2018-08-09T13:07:25.871Z,29.50
2018-08-09T13:09:56.048Z,29.00
2018-08-09T13:12:27.415Z,28.70
2018-08-09T13:14:57.698Z,28.00
2018-08-09T13:17:28.454Z,27.40
2018-08-09T13:19:57.282Z,26.90
2018-08-09T13:22:32.206Z,26.80
2018-08-09T13:25:04.550Z,26.50
2018-08-09T13:27:35.450Z,25.90
2018-08-09T13:30:08.379Z,25.70
2018-08-09T13:32:37.585Z,25.30
2018-08-09T13:35:13.432Z,24.90
2018-08-09T13:37:53.353Z,24.80
2018-08-09T13:40:27.184Z,24.60
2018-08-09T13:42:57.057Z,24.60
2018-08-09T13:45:26.669Z,24.60
2018-08-09T13:47:56.259Z,24.60
2018-08-09T13:50:25.206Z,24.40
2018-08-09T13:52:54.689Z,24.50
2018-08-09T13:55:27.162Z,24.30
2018-08-09T13:57:57.692Z,24.30
2018-08-09T14:00:28.587Z,24.50
2018-08-09T14:02:57.335Z,24.60
2018-08-09T14:05:27.624Z,24.70
2018-08-09T14:07:56.784Z,25.10
2018-08-09T14:10:28.886Z,25.20
2018-08-09T14:12:59.188Z,25.10
2018-08-09T14:15:30.334Z,25.30
2018-08-09T14:18:00.216Z,25.40
2018-08-09T14:20:32.599Z,25.30
2018-08-09T14:23:01.909Z,25.30
2018-08-09T14:25:32.177Z,25.20
2018-08-09T14:28:07.973Z,25.50
2018-08-09T14:30:36.789Z,25.20
2018-08-09T14:33:05.894Z,25.20
2018-08-09T14:35:37.548Z,25.50
2018-08-09T14:38:07.121Z,25.70
2018-08-09T14:40:37.332Z,25.50
2018-08-09T14:43:07.652Z,25.60
2018-08-09T14:45:36.521Z,25.90
2018-08-09T14:48:07.951Z,25.90
2018-08-09T14:50:37.697Z,25.90
2018-08-09T14:53:08.395Z,25.90
2018-08-09T14:55:39.661Z,25.70
2018-08-09T14:58:09.829Z,25.80
2018-08-09T15:00:39.164Z,25.60
2018-08-09T15:03:08.143Z,25.50
2018-08-09T15:05:38.805Z,25.50
2018-08-09T15:08:08.110Z,25.50
2018-08-09T15:10:37.611Z,25.50
2018-08-09T15:13:10.371Z,25.40
2018-08-09T15:15:41.100Z,25.30
2018-08-09T15:18:10.050Z,25.40
2018-08-09T15:20:40.052Z,25.40
2018-08-09T15:23:08.921Z,25.50
2018-08-09T15:25:39.222Z,25.20
2018-08-09T15:28:09.218Z,25.30
2018-08-09T15:30:39.541Z,25.20
2018-08-09T15:33:09.198Z,25.30
2018-08-09T15:35:38.303Z,25.20
2018-08-09T15:38:09.006Z,25.20
2018-08-09T15:40:38.651Z,25.20
2018-08-09T15:43:07.492Z,25.20
2018-08-09T15:45:37.903Z,25.20
2018-08-09T15:48:07.143Z,25.20
2018-08-09T15:50:37.368Z,25.10
2018-08-09T15:53:07.250Z,25.20
2018-08-09T15:55:40.243Z,25.20
2018-08-09T15:58:11.628Z,25.20
2018-08-09T16:00:40.843Z,25.20
2018-08-09T16:03:09.643Z,25.10
2018-08-09T16:05:38.834Z,25.20
2018-08-09T16:08:09.641Z,25.20
2018-08-09T16:10:39.698Z,25.20
2018-08-09T16:13:16.334Z,25.30
2018-08-09T16:15:47.752Z,25.20
2018-08-09T16:18:24.961Z,25.10
2018-08-09T16:20:54.043Z,25.00
2018-08-09T16:23:23.284Z,25.00
2018-08-09T16:25:52.160Z,25.20
2018-08-09T16:28:21.428Z,25.20
2018-08-09T16:30:50.501Z,25.30
2018-08-09T16:33:20.977Z,25.30
2018-08-09T16:35:53.320Z,25.00
2018-08-09T16:38:24.221Z,25.30
2018-08-09T16:40:53.160Z,25.60
2018-08-09T16:43:22.236Z,25.90
2018-08-09T16:45:51.287Z,25.90
2018-08-09T16:48:23.961Z,25.90
2018-08-09T16:50:58.604Z,25.90
2018-08-09T16:53:31.279Z,26.10
2018-08-09T16:56:04.371Z,26.10
2018-08-09T16:58:34.895Z,26.00
2018-08-09T17:01:05.615Z,25.70
2018-08-09T17:03:37.115Z,25.90
2018-08-09T17:06:07.928Z,26.20
2018-08-09T17:08:36.921Z,26.20
2018-08-09T17:11:07.325Z,26.10
2018-08-09T17:13:37.313Z,26.10
2018-08-09T17:16:06.637Z,26.10
2018-08-09T17:18:36.198Z,26.10
2018-08-09T17:21:11.839Z,26.00
2018-08-09T17:23:40.229Z,26.20
2018-08-09T17:26:08.610Z,26.10
2018-08-09T17:28:37.054Z,25.90
2018-08-09T17:31:05.498Z,25.90
2018-08-09T17:33:33.883Z,26.10
2018-08-09T17:36:02.208Z,26.20
2018-08-09T17:38:30.596Z,26.00
2018-08-09T17:40:58.970Z,26.10
2018-08-09T17:43:27.352Z,26.20
2018-08-09T17:45:55.636Z,26.00
2018-08-09T17:48:24.877Z,25.90
2018-08-09T17:50:53.305Z,26.10
2018-08-09T17:53:21.659Z,26.10
2018-08-09T17:55:50.065Z,26.10
2018-08-09T17:58:18.397Z,26.30
2018-08-09T18:00:46.685Z,26.30
2018-08-09T18:03:15.134Z,26.40
2018-08-09T18:05:43.582Z,25.90
2018-08-09T18:08:11.881Z,26.00
2018-08-09T18:10:40.283Z,26.20
2018-08-09T18:13:08.632Z,26.20
2018-08-09T18:15:36.987Z,26.10
2018-08-09T18:18:05.974Z,25.80
2018-08-09T18:20:36.034Z,25.50
2018-08-09T18:23:04.447Z,25.20
2018-08-09T18:25:32.832Z,25.20
2018-08-09T18:28:01.310Z,25.30
2018-08-09T18:30:29.666Z,25.50
2018-08-09T18:32:58.167Z,25.60
2018-08-09T18:35:26.605Z,25.30
2018-08-09T18:37:54.976Z,25.10
2018-08-09T18:40:25.210Z,25.00
2018-08-09T18:42:53.596Z,25.10
2018-08-09T18:45:22.248Z,24.70
2018-08-09T18:47:50.794Z,24.60
2018-08-09T18:50:25.288Z,24.40
2018-08-09T18:52:53.831Z,24.60
2018-08-09T18:55:22.184Z,24.60
2018-08-09T18:57:50.567Z,24.50
2018-08-09T19:00:20.409Z,23.90
2018-08-09T19:02:49.560Z,23.40
2018-08-09T19:05:17.986Z,23.50
2018-08-09T19:07:46.833Z,23.40
2018-08-09T19:10:17.934Z,23.30
2018-08-09T19:12:46.365Z,23.50
2018-08-09T19:15:14.821Z,23.50
2018-08-09T19:17:43.374Z,23.30
2018-08-09T19:20:16.114Z,23.50
2018-08-09T19:22:45.006Z,23.30
2018-08-09T19:25:14.115Z,23.50
2018-08-09T19:27:42.884Z,23.50
2018-08-09T19:30:14.677Z,23.40
2018-08-09T19:32:43.065Z,23.20
2018-08-09T19:35:13.262Z,23.30
2018-08-09T19:37:42.171Z,23.00
2018-08-09T19:40:12.313Z,23.00
2018-08-09T19:42:41.026Z,22.90
2018-08-09T19:45:18.984Z,23.10
2018-08-09T19:47:48.374Z,23.30
2018-08-09T19:50:21.504Z,23.10
2018-08-09T19:52:50.031Z,23.10
2018-08-09T19:55:20.030Z,23.20
2018-08-09T19:57:49.570Z,23.40
2018-08-09T20:00:19.773Z,23.00
2018-08-09T20:02:49.094Z,23.00
2018-08-09T20:05:17.952Z,23.10
2018-08-09T20:07:46.458Z,22.90
2018-08-09T20:10:15.345Z,23.00
2018-08-09T20:12:44.942Z,22.50
2018-08-09T20:15:17.779Z,22.60
2018-08-09T20:17:47.350Z,22.70
2018-08-09T20:20:17.419Z,22.60
2018-08-09T20:22:46.150Z,22.60
2018-08-09T20:25:14.940Z,22.60
2018-08-09T20:27:43.945Z,22.80
2018-08-09T20:30:14.055Z,22.50
2018-08-09T20:32:43.031Z,22.30
2018-08-09T20:35:20.157Z,22.40
2018-08-09T20:37:49.047Z,22.50
2018-08-09T20:40:18.901Z,22.50
2018-08-09T20:42:48.468Z,22.30
2018-08-09T20:45:18.455Z,22.20
2018-08-09T20:47:46.965Z,22.10
2018-08-09T20:50:20.428Z,22.30
2018-08-09T20:52:49.437Z,22.30
2018-08-09T20:55:17.859Z,22.10
2018-08-09T20:57:46.918Z,22.10
2018-08-09T21:00:19.268Z,21.90
2018-08-09T21:02:48.944Z,21.60
2018-08-09T21:05:20.836Z,21.50
2018-08-09T21:07:50.329Z,21.50
2018-08-09T21:10:18.722Z,21.50
2018-08-09T21:12:47.110Z,21.40
2018-08-09T21:15:17.034Z,21.20
2018-08-09T21:17:45.561Z,21.20
2018-08-09T21:20:14.484Z,21.10
2018-08-09T21:22:44.384Z,21.20
2018-08-09T21:25:12.872Z,21.20
2018-08-09T21:27:41.317Z,20.50
2018-08-09T21:30:12.431Z,20.00
2018-08-09T21:32:40.801Z,19.90
2018-08-09T21:35:09.887Z,19.90
2018-08-09T21:37:38.768Z,19.80
2018-08-09T21:40:08.190Z,20.00
2018-08-09T21:42:36.529Z,20.10
2018-08-09T21:45:07.193Z,19.90
2018-08-09T21:47:35.669Z,19.60
2018-08-09T21:50:04.704Z,19.80
2018-08-09T21:52:32.993Z,19.50
2018-08-09T21:55:01.314Z,19.70
2018-08-09T21:57:29.799Z,19.60
2018-08-09T21:59:58.289Z,19.50
2018-08-09T22:02:26.662Z,19.70
2018-08-09T22:05:00.209Z,20.10
2018-08-09T22:08:33.340Z,20.30
2018-08-09T22:11:07.126Z,19.90
2018-08-09T22:13:40.765Z,20.00
2018-08-09T22:16:14.636Z,20.10
2018-08-09T22:18:48.239Z,20.10
2018-08-09T22:21:21.863Z,20.10
2018-08-09T22:23:50.316Z,20.30
2018-08-09T22:26:18.733Z,20.30
2018-08-09T22:28:47.188Z,19.70
2018-08-09T22:31:16.278Z,19.60
2018-08-09T22:33:45.933Z,19.50
2018-08-09T22:36:15.553Z,19.60
2018-08-09T22:38:45.204Z,19.30
2018-08-09T22:41:15.057Z,19.40
2018-08-09T22:43:44.825Z,19.50
2018-08-09T22:46:15.070Z,19.50
2018-08-09T22:48:44.154Z,19.50
2018-08-09T22:51:14.029Z,19.30
2018-08-09T22:53:44.596Z,19.40
2018-08-09T22:56:21.190Z,19.20
2018-08-09T22:58:57.526Z,19.50
2018-08-09T23:01:37.535Z,19.70
2018-08-09T23:04:14.466Z,19.40
2018-08-09T23:06:58.991Z,19.50
2018-08-09T23:09:43.063Z,19.50
2018-08-09T23:12:26.176Z,19.40
2018-08-09T23:14:55.296Z,19.40
2018-08-09T23:17:24.671Z,19.40
2018-08-09T23:19:54.140Z,19.30
2018-08-09T23:22:22.813Z,19.60
2018-08-09T23:24:51.383Z,19.70
2018-08-09T23:27:19.789Z,19.70
2018-08-09T23:29:48.530Z,19.50
2018-08-09T23:32:16.999Z,19.90
2018-08-09T23:34:45.409Z,20.10
2018-08-09T23:37:13.917Z,19.40
2018-08-09T23:39:42.289Z,19.60
2018-08-09T23:42:10.560Z,19.50
2018-08-09T23:44:38.857Z,19.30
2018-08-09T23:47:07.145Z,19.10
2018-08-09T23:49:35.464Z,18.90
2018-08-09T23:52:03.761Z,18.40
2018-08-09T23:54:32.105Z,18.40
2018-08-09T23:57:00.400Z,18.60
2018-08-09T23:59:28.675Z,18.70
